sensor_id;sensor_type;location;lat;lon;timestamp;P1;durP1;ratioP1;P2;durP2;ratioP2
25780;SDS011;13626;48.128;11.628;2024-02-21T00:02:26;3.70;;;1.92;;
25780;SDS011;13626;48.128;11.628;2024-02-21T00:04:53;5.18;;;2.58;;
25780;SDS011;13626;48.128;11.628;2024-02-21T00:07:20;6.32;;;2.05;;
25780;SDS011;13626;48.128;11.628;2024-02-21T00:09:48;4.50;;;1.85;;
25780;SDS011;13626;48.128;11.628;2024-02-21T00:12:16;5.90;;;2.33;;
25780;SDS011;13626;48.128;11.628;2024-02-21T00:14:43;6.45;;;2.22;;
25780;SDS011;13626;48.128;11.628;2024-02-21T00:17:10;4.80;;;2.17;;
25780;SDS011;13626;48.128;11.628;2024-02-21T00:19:37;4.57;;;2.20;;
25780;SDS011;13626;48.128;11.628;2024-02-21T00:22:05;3.88;;;1.80;;
25780;SDS011;13626;48.128;11.628;2024-02-21T00:24:32;3.63;;;2.00;;
25780;SDS011;13626;48.128;11.628;2024-02-21T00:26:59;5.25;;;2.20;;
25780;SDS011;13626;48.128;11.628;2024-02-21T00:29:26;6.20;;;2.13;;
25780;SDS011;13626;48.128;11.628;2024-02-21T00:31:53;4.95;;;1.98;;
25780;SDS011;13626;48.128;11.628;2024-02-21T00:34:21;4.32;;;1.88;;
25780;SDS011;13626;48.128;11.628;2024-02-21T00:36:48;6.32;;;2.20;;
25780;SDS011;13626;48.128;11.628;2024-02-21T00:39:16;5.45;;;2.05;;
25780;SDS011;13626;48.128;11.628;2024-02-21T00:41:43;5.95;;;2.17;;
25780;SDS011;13626;48.128;11.628;2024-02-21T00:44:11;7.40;;;2.08;;
25780;SDS011;13626;48.128;11.628;2024-02-21T00:46:38;7.15;;;1.83;;
25780;SDS011;13626;48.128;11.628;2024-02-21T00:49:05;6.68;;;1.90;;
25780;SDS011;13626;48.128;11.628;2024-02-21T00:51:33;6.88;;;1.88;;
25780;SDS011;13626;48.128;11.628;2024-02-21T00:54:00;4.60;;;2.10;;
25780;SDS011;13626;48.128;11.628;2024-02-21T00:56:28;4.75;;;2.15;;
25780;SDS011;13626;48.128;11.628;2024-02-21T00:58:56;5.00;;;1.92;;
25780;SDS011;13626;48.128;11.628;2024-02-21T01:01:26;5.90;;;2.08;;
25780;SDS011;13626;48.128;11.628;2024-02-21T01:03:53;5.50;;;1.63;;
25780;SDS011;13626;48.128;11.628;2024-02-21T01:06:21;2.03;;;1.60;;
25780;SDS011;13626;48.128;11.628;2024-02-21T01:08:49;5.13;;;1.45;;
25780;SDS011;13626;48.128;11.628;2024-02-21T01:11:17;4.30;;;2.10;;
25780;SDS011;13626;48.128;11.628;2024-02-21T01:13:44;6.35;;;1.80;;
25780;SDS011;13626;48.128;11.628;2024-02-21T01:16:12;5.63;;;1.67;;
25780;SDS011;13626;48.128;11.628;2024-02-21T01:18:39;3.97;;;1.50;;
25780;SDS011;13626;48.128;11.628;2024-02-21T01:21:07;4.72;;;2.05;;
25780;SDS011;13626;48.128;11.628;2024-02-21T01:23:34;6.07;;;1.35;;
25780;SDS011;13626;48.128;11.628;2024-02-21T01:26:02;5.88;;;1.85;;
25780;SDS011;13626;48.128;11.628;2024-02-21T01:28:30;3.42;;;1.30;;
25780;SDS011;13626;48.128;11.628;2024-02-21T01:30:58;4.90;;;1.65;;
25780;SDS011;13626;48.128;11.628;2024-02-21T01:33:25;2.50;;;1.38;;
25780;SDS011;13626;48.128;11.628;2024-02-21T01:35:52;3.53;;;1.40;;
25780;SDS011;13626;48.128;11.628;2024-02-21T01:38:20;4.32;;;1.75;;
25780;SDS011;13626;48.128;11.628;2024-02-21T01:40:47;2.78;;;1.50;;
25780;SDS011;13626;48.128;11.628;2024-02-21T01:43:18;3.92;;;1.45;;
25780;SDS011;13626;48.128;11.628;2024-02-21T01:45:47;2.75;;;1.65;;
25780;SDS011;13626;48.128;11.628;2024-02-21T01:48:14;2.90;;;1.48;;
25780;SDS011;13626;48.128;11.628;2024-02-21T01:50:42;3.65;;;1.73;;
25780;SDS011;13626;48.128;11.628;2024-02-21T01:53:10;2.90;;;1.50;;
25780;SDS011;13626;48.128;11.628;2024-02-21T01:55:47;4.50;;;1.58;;
25780;SDS011;13626;48.128;11.628;2024-02-21T01:58:15;1.63;;;1.30;;
25780;SDS011;13626;48.128;11.628;2024-02-21T02:00:43;2.47;;;1.50;;
25780;SDS011;13626;48.128;11.628;2024-02-21T02:03:12;2.63;;;1.60;;
25780;SDS011;13626;48.128;11.628;2024-02-21T02:05:49;3.08;;;1.60;;
25780;SDS011;13626;48.128;11.628;2024-02-21T02:08:17;4.20;;;1.60;;
25780;SDS011;13626;48.128;11.628;2024-02-21T02:10:45;2.30;;;1.50;;
25780;SDS011;13626;48.128;11.628;2024-02-21T02:13:13;5.30;;;1.70;;
25780;SDS011;13626;48.128;11.628;2024-02-21T02:18:07;2.55;;;1.67;;
25780;SDS011;13626;48.128;11.628;2024-02-21T02:20:35;2.42;;;1.08;;
25780;SDS011;13626;48.128;11.628;2024-02-21T02:23:12;2.10;;;1.35;;
25780;SDS011;13626;48.128;11.628;2024-02-21T02:25:40;1.65;;;1.20;;
25780;SDS011;13626;48.128;11.628;2024-02-21T02:28:08;1.92;;;1.20;;
25780;SDS011;13626;48.128;11.628;2024-02-21T02:30:36;1.92;;;1.30;;
25780;SDS011;13626;48.128;11.628;2024-02-21T02:33:03;3.05;;;1.55;;
25780;SDS011;13626;48.128;11.628;2024-02-21T02:35:31;5.05;;;1.50;;
25780;SDS011;13626;48.128;11.628;2024-02-21T02:37:59;3.20;;;1.30;;
25780;SDS011;13626;48.128;11.628;2024-02-21T02:40:26;2.40;;;1.40;;
25780;SDS011;13626;48.128;11.628;2024-02-21T02:42:53;3.03;;;1.30;;
25780;SDS011;13626;48.128;11.628;2024-02-21T02:45:23;1.75;;;1.20;;
25780;SDS011;13626;48.128;11.628;2024-02-21T02:47:52;4.32;;;1.40;;
25780;SDS011;13626;48.128;11.628;2024-02-21T02:50:26;1.70;;;0.90;;
25780;SDS011;13626;48.128;11.628;2024-02-21T02:52:54;3.65;;;1.17;;
25780;SDS011;13626;48.128;11.628;2024-02-21T02:55:22;2.60;;;1.30;;
25780;SDS011;13626;48.128;11.628;2024-02-21T02:57:49;2.80;;;1.33;;
25780;SDS011;13626;48.128;11.628;2024-02-21T03:00:16;1.83;;;1.10;;
25780;SDS011;13626;48.128;11.628;2024-02-21T03:02:45;2.75;;;1.20;;
25780;SDS011;13626;48.128;11.628;2024-02-21T03:05:19;2.88;;;1.10;;
25780;SDS011;13626;48.128;11.628;2024-02-21T03:07:47;1.30;;;0.93;;
25780;SDS011;13626;48.128;11.628;2024-02-21T03:10:15;2.00;;;1.10;;
25780;SDS011;13626;48.128;11.628;2024-02-21T03:12:44;5.75;;;1.30;;
25780;SDS011;13626;48.128;11.628;2024-02-21T03:15:13;3.42;;;1.08;;
25780;SDS011;13626;48.128;11.628;2024-02-21T03:17:41;4.45;;;1.10;;
25780;SDS011;13626;48.128;11.628;2024-02-21T03:20:09;3.03;;;1.60;;
25780;SDS011;13626;48.128;11.628;2024-02-21T03:22:39;3.13;;;1.23;;
25780;SDS011;13626;48.128;11.628;2024-02-21T03:25:07;1.70;;;1.08;;
25780;SDS011;13626;48.128;11.628;2024-02-21T03:27:34;1.80;;;1.08;;
25780;SDS011;13626;48.128;11.628;2024-02-21T03:30:02;2.85;;;1.00;;
25780;SDS011;13626;48.128;11.628;2024-02-21T03:32:30;7.10;;;1.00;;
25780;SDS011;13626;48.128;11.628;2024-02-21T03:34:58;3.25;;;1.35;;
25780;SDS011;13626;48.128;11.628;2024-02-21T03:37:25;1.77;;;0.90;;
25780;SDS011;13626;48.128;11.628;2024-02-21T03:39:52;3.63;;;1.10;;
25780;SDS011;13626;48.128;11.628;2024-02-21T03:42:20;2.28;;;1.20;;
25780;SDS011;13626;48.128;11.628;2024-02-21T03:44:47;2.28;;;0.90;;
25780;SDS011;13626;48.128;11.628;2024-02-21T03:47:14;4.60;;;1.17;;
25780;SDS011;13626;48.128;11.628;2024-02-21T03:49:41;3.85;;;1.40;;
25780;SDS011;13626;48.128;11.628;2024-02-21T03:52:09;1.25;;;1.10;;
25780;SDS011;13626;48.128;11.628;2024-02-21T03:54:36;3.55;;;1.10;;
25780;SDS011;13626;48.128;11.628;2024-02-21T03:57:04;4.03;;;1.90;;
25780;SDS011;13626;48.128;11.628;2024-02-21T03:59:32;1.73;;;0.85;;
25780;SDS011;13626;48.128;11.628;2024-02-21T04:01:59;2.47;;;0.90;;
25780;SDS011;13626;48.128;11.628;2024-02-21T04:04:27;1.73;;;1.17;;
25780;SDS011;13626;48.128;11.628;2024-02-21T04:06:54;2.50;;;1.00;;
25780;SDS011;13626;48.128;11.628;2024-02-21T04:09:23;2.22;;;1.20;;
25780;SDS011;13626;48.128;11.628;2024-02-21T04:11:50;3.67;;;0.98;;
25780;SDS011;13626;48.128;11.628;2024-02-21T04:14:18;2.88;;;1.20;;
25780;SDS011;13626;48.128;11.628;2024-02-21T04:16:45;3.55;;;1.20;;
25780;SDS011;13626;48.128;11.628;2024-02-21T04:19:12;1.50;;;0.75;;
25780;SDS011;13626;48.128;11.628;2024-02-21T04:21:40;1.05;;;0.90;;
25780;SDS011;13626;48.128;11.628;2024-02-21T04:24:07;2.28;;;1.02;;
25780;SDS011;13626;48.128;11.628;2024-02-21T04:26:34;2.00;;;1.10;;
25780;SDS011;13626;48.128;11.628;2024-02-21T04:29:01;2.55;;;1.10;;
25780;SDS011;13626;48.128;11.628;2024-02-21T04:31:29;2.40;;;1.00;;
25780;SDS011;13626;48.128;11.628;2024-02-21T04:33:56;0.85;;;0.70;;
25780;SDS011;13626;48.128;11.628;2024-02-21T04:36:24;4.78;;;1.10;;
25780;SDS011;13626;48.128;11.628;2024-02-21T04:38:51;2.15;;;1.20;;
25780;SDS011;13626;48.128;11.628;2024-02-21T04:41:18;2.63;;;1.00;;
25780;SDS011;13626;48.128;11.628;2024-02-21T04:43:46;2.35;;;1.00;;
25780;SDS011;13626;48.128;11.628;2024-02-21T04:46:16;2.30;;;1.13;;
25780;SDS011;13626;48.128;11.628;2024-02-21T04:48:43;1.67;;;1.00;;
25780;SDS011;13626;48.128;11.628;2024-02-21T04:51:11;1.52;;;1.10;;
25780;SDS011;13626;48.128;11.628;2024-02-21T04:53:39;2.80;;;1.23;;
25780;SDS011;13626;48.128;11.628;2024-02-21T04:56:07;2.35;;;1.13;;
25780;SDS011;13626;48.128;11.628;2024-02-21T04:58:37;2.47;;;1.08;;
25780;SDS011;13626;48.128;11.628;2024-02-21T05:01:05;1.80;;;1.10;;
25780;SDS011;13626;48.128;11.628;2024-02-21T05:03:32;2.92;;;1.02;;
25780;SDS011;13626;48.128;11.628;2024-02-21T05:05:59;3.30;;;1.20;;
25780;SDS011;13626;48.128;11.628;2024-02-21T05:08:27;2.35;;;0.80;;
25780;SDS011;13626;48.128;11.628;2024-02-21T05:10:54;2.42;;;1.10;;
25780;SDS011;13626;48.128;11.628;2024-02-21T05:13:22;3.50;;;1.20;;
25780;SDS011;13626;48.128;11.628;2024-02-21T05:15:50;3.15;;;1.10;;
25780;SDS011;13626;48.128;11.628;2024-02-21T05:18:17;1.35;;;1.23;;
25780;SDS011;13626;48.128;11.628;2024-02-21T05:20:46;2.15;;;1.05;;
25780;SDS011;13626;48.128;11.628;2024-02-21T05:23:13;1.95;;;0.90;;
25780;SDS011;13626;48.128;11.628;2024-02-21T05:25:40;3.53;;;1.02;;
25780;SDS011;13626;48.128;11.628;2024-02-21T05:28:07;1.70;;;1.20;;
25780;SDS011;13626;48.128;11.628;2024-02-21T05:30:35;2.22;;;1.27;;
25780;SDS011;13626;48.128;11.628;2024-02-21T05:33:05;1.63;;;0.88;;
25780;SDS011;13626;48.128;11.628;2024-02-21T05:35:33;4.43;;;1.10;;
25780;SDS011;13626;48.128;11.628;2024-02-21T05:38:01;2.67;;;1.13;;
25780;SDS011;13626;48.128;11.628;2024-02-21T05:40:31;4.53;;;0.93;;
25780;SDS011;13626;48.128;11.628;2024-02-21T05:42:59;1.58;;;0.75;;
25780;SDS011;13626;48.128;11.628;2024-02-21T05:45:26;4.60;;;1.30;;
25780;SDS011;13626;48.128;11.628;2024-02-21T05:47:53;1.27;;;0.90;;
25780;SDS011;13626;48.128;11.628;2024-02-21T05:50:20;2.60;;;1.30;;
25780;SDS011;13626;48.128;11.628;2024-02-21T05:52:53;1.13;;;0.85;;
25780;SDS011;13626;48.128;11.628;2024-02-21T05:55:22;2.50;;;0.85;;
25780;SDS011;13626;48.128;11.628;2024-02-21T05:57:49;2.17;;;0.98;;
25780;SDS011;13626;48.128;11.628;2024-02-21T06:00:16;2.20;;;0.90;;
25780;SDS011;13626;48.128;11.628;2024-02-21T06:02:44;1.45;;;0.90;;
25780;SDS011;13626;48.128;11.628;2024-02-21T06:05:11;1.13;;;0.80;;
25780;SDS011;13626;48.128;11.628;2024-02-21T06:07:38;1.67;;;1.00;;
25780;SDS011;13626;48.128;11.628;2024-02-21T06:10:06;2.05;;;0.98;;
25780;SDS011;13626;48.128;11.628;2024-02-21T06:12:34;2.00;;;1.08;;
25780;SDS011;13626;48.128;11.628;2024-02-21T06:15:01;1.63;;;0.98;;
25780;SDS011;13626;48.128;11.628;2024-02-21T06:17:29;2.47;;;0.90;;
25780;SDS011;13626;48.128;11.628;2024-02-21T06:19:56;1.77;;;0.85;;
25780;SDS011;13626;48.128;11.628;2024-02-21T06:22:23;1.00;;;0.88;;
25780;SDS011;13626;48.128;11.628;2024-02-21T06:24:51;1.92;;;0.80;;
25780;SDS011;13626;48.128;11.628;2024-02-21T06:27:20;2.08;;;0.85;;
25780;SDS011;13626;48.128;11.628;2024-02-21T06:29:47;2.88;;;0.88;;
25780;SDS011;13626;48.128;11.628;2024-02-21T06:32:14;3.40;;;0.95;;
25780;SDS011;13626;48.128;11.628;2024-02-21T06:34:42;2.35;;;1.00;;
25780;SDS011;13626;48.128;11.628;2024-02-21T06:37:09;3.47;;;1.17;;
25780;SDS011;13626;48.128;11.628;2024-02-21T06:39:37;2.97;;;1.13;;
25780;SDS011;13626;48.128;11.628;2024-02-21T06:42:04;1.13;;;0.90;;
25780;SDS011;13626;48.128;11.628;2024-02-21T06:44:31;2.22;;;1.10;;
25780;SDS011;13626;48.128;11.628;2024-02-21T06:47:02;1.88;;;1.15;;
25780;SDS011;13626;48.128;11.628;2024-02-21T06:49:30;7.75;;;1.30;;
25780;SDS011;13626;48.128;11.628;2024-02-21T06:51:57;4.18;;;0.90;;
25780;SDS011;13626;48.128;11.628;2024-02-21T06:54:24;2.20;;;1.10;;
25780;SDS011;13626;48.128;11.628;2024-02-21T06:56:52;1.83;;;0.85;;
25780;SDS011;13626;48.128;11.628;2024-02-21T06:59:20;2.22;;;0.90;;
25780;SDS011;13626;48.128;11.628;2024-02-21T07:01:48;5.85;;;1.08;;
25780;SDS011;13626;48.128;11.628;2024-02-21T07:04:16;1.13;;;0.95;;
25780;SDS011;13626;48.128;11.628;2024-02-21T07:06:43;2.47;;;0.80;;
25780;SDS011;13626;48.128;11.628;2024-02-21T07:09:11;1.45;;;0.68;;
25780;SDS011;13626;48.128;11.628;2024-02-21T07:11:38;1.83;;;0.88;;
25780;SDS011;13626;48.128;11.628;2024-02-21T07:14:05;2.00;;;0.80;;
25780;SDS011;13626;48.128;11.628;2024-02-21T07:16:33;0.90;;;0.77;;
25780;SDS011;13626;48.128;11.628;2024-02-21T07:19:00;3.13;;;2.05;;
25780;SDS011;13626;48.128;11.628;2024-02-21T07:21:27;1.55;;;0.80;;
25780;SDS011;13626;48.128;11.628;2024-02-21T07:23:55;1.58;;;0.77;;
25780;SDS011;13626;48.128;11.628;2024-02-21T07:26:23;2.53;;;1.27;;
25780;SDS011;13626;48.128;11.628;2024-02-21T07:28:50;3.35;;;0.88;;
25780;SDS011;13626;48.128;11.628;2024-02-21T07:31:18;2.15;;;0.85;;
25780;SDS011;13626;48.128;11.628;2024-02-21T07:33:45;1.80;;;0.90;;
25780;SDS011;13626;48.128;11.628;2024-02-21T07:36:14;2.38;;;0.90;;
25780;SDS011;13626;48.128;11.628;2024-02-21T07:38:43;5.15;;;0.90;;
25780;SDS011;13626;48.128;11.628;2024-02-21T07:41:10;2.90;;;0.85;;
25780;SDS011;13626;48.128;11.628;2024-02-21T07:43:37;3.25;;;1.10;;
25780;SDS011;13626;48.128;11.628;2024-02-21T07:46:06;2.20;;;0.90;;
25780;SDS011;13626;48.128;11.628;2024-02-21T07:48:33;0.68;;;0.60;;
25780;SDS011;13626;48.128;11.628;2024-02-21T07:51:01;2.58;;;1.67;;
25780;SDS011;13626;48.128;11.628;2024-02-21T07:53:28;1.13;;;0.70;;
25780;SDS011;13626;48.128;11.628;2024-02-21T07:55:55;4.03;;;1.27;;
25780;SDS011;13626;48.128;11.628;2024-02-21T07:58:22;2.28;;;0.75;;
25780;SDS011;13626;48.128;11.628;2024-02-21T08:00:50;1.92;;;1.10;;
25780;SDS011;13626;48.128;11.628;2024-02-21T08:03:17;0.95;;;0.82;;
25780;SDS011;13626;48.128;11.628;2024-02-21T08:05:44;2.00;;;1.02;;
25780;SDS011;13626;48.128;11.628;2024-02-21T08:08:12;5.00;;;0.93;;
25780;SDS011;13626;48.128;11.628;2024-02-21T08:10:44;3.28;;;1.10;;
25780;SDS011;13626;48.128;11.628;2024-02-21T08:13:12;1.00;;;0.70;;
25780;SDS011;13626;48.128;11.628;2024-02-21T08:15:39;1.67;;;1.20;;
25780;SDS011;13626;48.128;11.628;2024-02-21T08:18:08;3.08;;;0.90;;
25780;SDS011;13626;48.128;11.628;2024-02-21T08:20:35;2.80;;;1.10;;
25780;SDS011;13626;48.128;11.628;2024-02-21T08:23:03;0.70;;;0.70;;
25780;SDS011;13626;48.128;11.628;2024-02-21T08:25:30;3.53;;;0.93;;
25780;SDS011;13626;48.128;11.628;2024-02-21T08:27:58;1.15;;;0.90;;
25780;SDS011;13626;48.128;11.628;2024-02-21T08:30:26;1.65;;;0.73;;
25780;SDS011;13626;48.128;11.628;2024-02-21T08:32:53;1.67;;;0.75;;
25780;SDS011;13626;48.128;11.628;2024-02-21T08:35:21;2.28;;;0.70;;
25780;SDS011;13626;48.128;11.628;2024-02-21T08:37:51;3.35;;;1.15;;
25780;SDS011;13626;48.128;11.628;2024-02-21T08:40:19;1.40;;;0.90;;
25780;SDS011;13626;48.128;11.628;2024-02-21T08:42:48;2.28;;;1.40;;
25780;SDS011;13626;48.128;11.628;2024-02-21T08:45:16;4.78;;;1.23;;
25780;SDS011;13626;48.128;11.628;2024-02-21T08:47:43;2.15;;;0.93;;
25780;SDS011;13626;48.128;11.628;2024-02-21T08:50:11;3.42;;;1.20;;
25780;SDS011;13626;48.128;11.628;2024-02-21T08:52:53;7.10;;;1.15;;
25780;SDS011;13626;48.128;11.628;2024-02-21T08:55:21;1.75;;;1.02;;
25780;SDS011;13626;48.128;11.628;2024-02-21T08:57:48;1.20;;;0.88;;
25780;SDS011;13626;48.128;11.628;2024-02-21T09:00:16;3.35;;;1.35;;
25780;SDS011;13626;48.128;11.628;2024-02-21T09:02:44;3.03;;;0.80;;
25780;SDS011;13626;48.128;11.628;2024-02-21T09:05:11;3.80;;;0.82;;
25780;SDS011;13626;48.128;11.628;2024-02-21T09:07:38;1.65;;;0.63;;
25780;SDS011;13626;48.128;11.628;2024-02-21T09:10:06;1.52;;;0.50;;
25780;SDS011;13626;48.128;11.628;2024-02-21T09:12:33;0.85;;;0.80;;
25780;SDS011;13626;48.128;11.628;2024-02-21T09:15:01;1.55;;;0.77;;
25780;SDS011;13626;48.128;11.628;2024-02-21T09:17:28;3.33;;;0.60;;
25780;SDS011;13626;48.128;11.628;2024-02-21T09:19:56;3.38;;;0.70;;
25780;SDS011;13626;48.128;11.628;2024-02-21T09:22:26;2.28;;;1.13;;
25780;SDS011;13626;48.128;11.628;2024-02-21T09:24:54;1.25;;;1.00;;
25780;SDS011;13626;48.128;11.628;2024-02-21T09:27:21;4.03;;;0.82;;
25780;SDS011;13626;48.128;11.628;2024-02-21T09:29:49;4.15;;;0.70;;
25780;SDS011;13626;48.128;11.628;2024-02-21T09:32:16;0.88;;;0.60;;
25780;SDS011;13626;48.128;11.628;2024-02-21T09:34:44;2.17;;;0.88;;
25780;SDS011;13626;48.128;11.628;2024-02-21T09:37:11;1.08;;;0.60;;
25780;SDS011;13626;48.128;11.628;2024-02-21T09:39:39;1.30;;;0.75;;
25780;SDS011;13626;48.128;11.628;2024-02-21T09:42:06;0.60;;;0.60;;
25780;SDS011;13626;48.128;11.628;2024-02-21T09:44:36;3.75;;;0.70;;
25780;SDS011;13626;48.128;11.628;2024-02-21T09:47:07;1.95;;;0.68;;
25780;SDS011;13626;48.128;11.628;2024-02-21T09:49:38;1.25;;;0.60;;
25780;SDS011;13626;48.128;11.628;2024-02-21T09:52:07;6.70;;;1.77;;
25780;SDS011;13626;48.128;11.628;2024-02-21T09:54:35;1.80;;;0.82;;
25780;SDS011;13626;48.128;11.628;2024-02-21T09:57:03;0.93;;;0.70;;
25780;SDS011;13626;48.128;11.628;2024-02-21T09:59:32;2.00;;;0.82;;
25780;SDS011;13626;48.128;11.628;2024-02-21T10:02:00;1.30;;;0.80;;
25780;SDS011;13626;48.128;11.628;2024-02-21T10:04:28;0.60;;;0.60;;
25780;SDS011;13626;48.128;11.628;2024-02-21T10:06:56;2.60;;;0.80;;
25780;SDS011;13626;48.128;11.628;2024-02-21T10:09:24;0.88;;;0.60;;
25780;SDS011;13626;48.128;11.628;2024-02-21T10:11:55;1.50;;;1.00;;
25780;SDS011;13626;48.128;11.628;2024-02-21T10:14:22;1.85;;;0.93;;
25780;SDS011;13626;48.128;11.628;2024-02-21T10:16:56;1.58;;;0.95;;
25780;SDS011;13626;48.128;11.628;2024-02-21T10:19:27;4.35;;;1.02;;
25780;SDS011;13626;48.128;11.628;2024-02-21T10:22:01;1.40;;;0.68;;
25780;SDS011;13626;48.128;11.628;2024-02-21T10:24:30;3.67;;;0.70;;
25780;SDS011;13626;48.128;11.628;2024-02-21T10:27:05;2.17;;;0.93;;
25780;SDS011;13626;48.128;11.628;2024-02-21T10:29:38;2.92;;;0.90;;
25780;SDS011;13626;48.128;11.628;2024-02-21T10:34:34;0.88;;;0.63;;
25780;SDS011;13626;48.128;11.628;2024-02-21T10:37:02;3.08;;;0.90;;
25780;SDS011;13626;48.128;11.628;2024-02-21T10:39:31;1.70;;;0.90;;
25780;SDS011;13626;48.128;11.628;2024-02-21T10:42:00;3.25;;;0.95;;
25780;SDS011;13626;48.128;11.628;2024-02-21T10:44:31;1.10;;;0.70;;
25780;SDS011;13626;48.128;11.628;2024-02-21T10:46:58;1.75;;;1.00;;
25780;SDS011;13626;48.128;11.628;2024-02-21T10:49:26;0.50;;;0.50;;
25780;SDS011;13626;48.128;11.628;2024-02-21T10:52:03;0.85;;;0.40;;
25780;SDS011;13626;48.128;11.628;2024-02-21T10:57:00;1.95;;;0.45;;
25780;SDS011;13626;48.128;11.628;2024-02-21T10:59:30;0.50;;;0.45;;
25780;SDS011;13626;48.128;11.628;2024-02-21T11:01:58;2.22;;;0.60;;
25780;SDS011;13626;48.128;11.628;2024-02-21T11:04:26;1.38;;;0.40;;
25780;SDS011;13626;48.128;11.628;2024-02-21T11:06:55;2.55;;;0.60;;
25780;SDS011;13626;48.128;11.628;2024-02-21T11:09:50;1.23;;;0.52;;
25780;SDS011;13626;48.128;11.628;2024-02-21T11:12:13;1.70;;;0.50;;
25780;SDS011;13626;48.128;11.628;2024-02-21T11:14:47;0.50;;;0.43;;
25780;SDS011;13626;48.128;11.628;2024-02-21T11:17:18;1.00;;;0.70;;
25780;SDS011;13626;48.128;11.628;2024-02-21T11:19:45;1.25;;;0.47;;
25780;SDS011;13626;48.128;11.628;2024-02-21T11:22:17;0.75;;;0.50;;
25780;SDS011;13626;48.128;11.628;2024-02-21T11:24:45;0.43;;;0.43;;
25780;SDS011;13626;48.128;11.628;2024-02-21T11:27:14;0.47;;;0.40;;
25780;SDS011;13626;48.128;11.628;2024-02-21T11:29:49;0.40;;;0.20;;
25780;SDS011;13626;48.128;11.628;2024-02-21T11:32:19;0.40;;;0.35;;
25780;SDS011;13626;48.128;11.628;2024-02-21T11:35:03;0.20;;;0.20;;
25780;SDS011;13626;48.128;11.628;2024-02-21T11:37:35;0.68;;;0.38;;
25780;SDS011;13626;48.128;11.628;2024-02-21T11:40:04;0.95;;;0.40;;
25780;SDS011;13626;48.128;11.628;2024-02-21T11:42:33;1.30;;;0.40;;
25780;SDS011;13626;48.128;11.628;2024-02-21T11:45:00;0.32;;;0.32;;
25780;SDS011;13626;48.128;11.628;2024-02-21T11:47:28;0.50;;;0.40;;
25780;SDS011;13626;48.128;11.628;2024-02-21T11:49:56;0.47;;;0.35;;
25780;SDS011;13626;48.128;11.628;2024-02-21T11:52:24;0.55;;;0.45;;
25780;SDS011;13626;48.128;11.628;2024-02-21T11:54:53;1.55;;;0.30;;
25780;SDS011;13626;48.128;11.628;2024-02-21T11:57:22;2.15;;;0.52;;
25780;SDS011;13626;48.128;11.628;2024-02-21T11:59:50;0.73;;;0.70;;
25780;SDS011;13626;48.128;11.628;2024-02-21T12:04:51;2.55;;;1.38;;
25780;SDS011;13626;48.128;11.628;2024-02-21T12:07:18;1.80;;;0.47;;
25780;SDS011;13626;48.128;11.628;2024-02-21T12:09:46;2.13;;;0.45;;
25780;SDS011;13626;48.128;11.628;2024-02-21T12:12:13;0.70;;;0.38;;
25780;SDS011;13626;48.128;11.628;2024-02-21T12:14:41;0.30;;;0.25;;
25780;SDS011;13626;48.128;11.628;2024-02-21T12:17:08;0.82;;;0.40;;
25780;SDS011;13626;48.128;11.628;2024-02-21T12:19:35;1.80;;;0.30;;
25780;SDS011;13626;48.128;11.628;2024-02-21T12:22:04;0.85;;;0.50;;
25780;SDS011;13626;48.128;11.628;2024-02-21T12:24:34;2.38;;;0.30;;
25780;SDS011;13626;48.128;11.628;2024-02-21T12:27:05;0.93;;;0.30;;
25780;SDS011;13626;48.128;11.628;2024-02-21T12:29:32;0.20;;;0.20;;
25780;SDS011;13626;48.128;11.628;2024-02-21T12:31:59;0.50;;;0.30;;
25780;SDS011;13626;48.128;11.628;2024-02-21T12:34:27;0.40;;;0.40;;
25780;SDS011;13626;48.128;11.628;2024-02-21T12:37:13;1.58;;;0.50;;
25780;SDS011;13626;48.128;11.628;2024-02-21T12:39:42;0.47;;;0.40;;
25780;SDS011;13626;48.128;11.628;2024-02-21T12:42:10;0.43;;;0.32;;
25780;SDS011;13626;48.128;11.628;2024-02-21T12:44:38;0.88;;;0.32;;
25780;SDS011;13626;48.128;11.628;2024-02-21T12:47:05;2.67;;;0.50;;
25780;SDS011;13626;48.128;11.628;2024-02-21T12:49:34;1.83;;;0.32;;
25780;SDS011;13626;48.128;11.628;2024-02-21T12:52:10;0.70;;;0.20;;
25780;SDS011;13626;48.128;11.628;2024-02-21T12:54:37;0.68;;;0.20;;
25780;SDS011;13626;48.128;11.628;2024-02-21T12:57:05;0.82;;;0.38;;
25780;SDS011;13626;48.128;11.628;2024-02-21T12:59:32;0.17;;;0.17;;
25780;SDS011;13626;48.128;11.628;2024-02-21T13:01:59;0.30;;;0.20;;
25780;SDS011;13626;48.128;11.628;2024-02-21T13:04:27;0.30;;;0.30;;
25780;SDS011;13626;48.128;11.628;2024-02-21T13:06:55;1.27;;;0.30;;
25780;SDS011;13626;48.128;11.628;2024-02-21T13:09:23;1.48;;;0.30;;
25780;SDS011;13626;48.128;11.628;2024-02-21T13:11:50;0.47;;;0.35;;
25780;SDS011;13626;48.128;11.628;2024-02-21T13:14:19;0.43;;;0.40;;
25780;SDS011;13626;48.128;11.628;2024-02-21T13:16:49;0.45;;;0.43;;
25780;SDS011;13626;48.128;11.628;2024-02-21T13:19:16;0.50;;;0.50;;
25780;SDS011;13626;48.128;11.628;2024-02-21T13:21:44;0.20;;;0.20;;
25780;SDS011;13626;48.128;11.628;2024-02-21T13:24:12;1.92;;;0.85;;
25780;SDS011;13626;48.128;11.628;2024-02-21T13:26:39;3.15;;;0.55;;
25780;SDS011;13626;48.128;11.628;2024-02-21T13:29:07;0.63;;;0.20;;
25780;SDS011;13626;48.128;11.628;2024-02-21T13:31:34;1.15;;;0.65;;
25780;SDS011;13626;48.128;11.628;2024-02-21T13:34:02;0.20;;;0.20;;
25780;SDS011;13626;48.128;11.628;2024-02-21T13:36:29;0.95;;;0.20;;
25780;SDS011;13626;48.128;11.628;2024-02-21T13:38:57;0.43;;;0.32;;
25780;SDS011;13626;48.128;11.628;2024-02-21T13:41:24;3.03;;;0.50;;
25780;SDS011;13626;48.128;11.628;2024-02-21T13:43:51;0.50;;;0.30;;
25780;SDS011;13626;48.128;11.628;2024-02-21T13:46:18;1.63;;;0.40;;
25780;SDS011;13626;48.128;11.628;2024-02-21T13:48:46;0.32;;;0.30;;
25780;SDS011;13626;48.128;11.628;2024-02-21T13:51:13;1.02;;;0.45;;
25780;SDS011;13626;48.128;11.628;2024-02-21T13:53:43;0.40;;;0.38;;
25780;SDS011;13626;48.128;11.628;2024-02-21T13:56:10;0.40;;;0.25;;
25780;SDS011;13626;48.128;11.628;2024-02-21T13:58:37;0.55;;;0.40;;
25780;SDS011;13626;48.128;11.628;2024-02-21T14:01:04;2.05;;;0.45;;
25780;SDS011;13626;48.128;11.628;2024-02-21T14:03:33;0.20;;;0.20;;
25780;SDS011;13626;48.128;11.628;2024-02-21T14:06:00;0.70;;;0.60;;
25780;SDS011;13626;48.128;11.628;2024-02-21T14:08:28;0.98;;;0.40;;
25780;SDS011;13626;48.128;11.628;2024-02-21T14:10:56;2.17;;;0.50;;
25780;SDS011;13626;48.128;11.628;2024-02-21T14:13:26;0.20;;;0.20;;
25780;SDS011;13626;48.128;11.628;2024-02-21T14:15:54;1.77;;;0.43;;
25780;SDS011;13626;48.128;11.628;2024-02-21T14:18:21;1.73;;;0.63;;
25780;SDS011;13626;48.128;11.628;2024-02-21T14:20:49;1.10;;;0.57;;
25780;SDS011;13626;48.128;11.628;2024-02-21T14:23:16;1.33;;;0.50;;
25780;SDS011;13626;48.128;11.628;2024-02-21T14:25:44;1.85;;;0.70;;
25780;SDS011;13626;48.128;11.628;2024-02-21T14:28:11;1.30;;;0.77;;
25780;SDS011;13626;48.128;11.628;2024-02-21T14:30:38;0.80;;;0.60;;
25780;SDS011;13626;48.128;11.628;2024-02-21T14:33:05;0.77;;;0.40;;
25780;SDS011;13626;48.128;11.628;2024-02-21T14:35:34;0.80;;;0.70;;
25780;SDS011;13626;48.128;11.628;2024-02-21T14:38:01;2.72;;;0.43;;
25780;SDS011;13626;48.128;11.628;2024-02-21T14:40:29;1.30;;;0.55;;
25780;SDS011;13626;48.128;11.628;2024-02-21T14:42:57;5.07;;;1.17;;
25780;SDS011;13626;48.128;11.628;2024-02-21T14:45:24;1.60;;;0.55;;
25780;SDS011;13626;48.128;11.628;2024-02-21T14:47:51;2.15;;;0.47;;
25780;SDS011;13626;48.128;11.628;2024-02-21T14:50:19;3.33;;;0.55;;